createdAt,value
2024-01-30T00:00:35.646Z,1.40
2024-01-30T00:03:02.679Z,1.43
2024-01-30T00:05:29.705Z,1.46
2024-01-30T00:07:56.674Z,1.44
2024-01-30T00:10:23.673Z,1.42
2024-01-30T00:12:50.657Z,1.34
2024-01-30T00:15:17.627Z,1.32
2024-01-30T00:17:44.569Z,1.32
2024-01-30T00:20:11.967Z,1.29
2024-01-30T00:22:39.007Z,1.34
2024-01-30T00:25:06.172Z,1.32
2024-01-30T00:27:33.098Z,1.28
2024-01-30T00:30:00.012Z,1.28
2024-01-30T00:32:26.951Z,1.34
2024-01-30T00:34:54.078Z,1.37
2024-01-30T00:37:21.340Z,1.32
2024-01-30T00:39:48.436Z,1.36
2024-01-30T00:42:15.580Z,1.32
2024-01-30T00:44:42.460Z,1.31
2024-01-30T00:47:09.965Z,1.29
2024-01-30T00:49:37.221Z,1.21
2024-01-30T00:52:04.404Z,1.17
2024-01-30T00:54:31.363Z,1.17
2024-01-30T00:56:58.620Z,1.19
2024-01-30T00:59:25.984Z,1.13
2024-01-30T01:01:53.092Z,1.11
2024-01-30T01:04:20.274Z,1.11
2024-01-30T01:06:47.287Z,1.11
2024-01-30T01:09:14.276Z,1.06
2024-01-30T01:11:41.193Z,1.02
2024-01-30T01:14:08.294Z,1.06
2024-01-30T01:16:35.221Z,1.07
2024-01-30T01:19:02.892Z,1.07
2024-01-30T01:21:29.953Z,1.06
2024-01-30T01:23:56.873Z,1.03
2024-01-30T01:26:24.659Z,0.99
2024-01-30T01:28:51.581Z,1.00
2024-01-30T01:31:19.197Z,1.00
2024-01-30T01:33:46.801Z,1.01
2024-01-30T01:36:14.646Z,0.94
2024-01-30T01:38:41.983Z,1.00
2024-01-30T01:41:09.238Z,1.00
2024-01-30T01:43:36.199Z,0.99
2024-01-30T01:46:03.569Z,0.94
2024-01-30T01:48:30.731Z,0.96
2024-01-30T01:50:58.293Z,0.99
2024-01-30T01:53:25.515Z,0.94
2024-01-30T01:55:54.255Z,0.92
2024-01-30T01:58:23.336Z,0.92
2024-01-30T02:00:51.918Z,0.91
2024-01-30T02:03:19.566Z,0.87
2024-01-30T02:05:46.481Z,0.84
2024-01-30T02:08:13.537Z,0.88
2024-01-30T02:10:40.584Z,0.82
2024-01-30T02:13:08.169Z,0.80
2024-01-30T02:15:35.126Z,0.78
2024-01-30T02:18:02.126Z,0.82
2024-01-30T02:20:31.044Z,0.82
2024-01-30T02:22:59.789Z,0.77
2024-01-30T02:25:34.417Z,0.73
2024-01-30T02:28:01.370Z,0.71
2024-01-30T02:30:28.329Z,0.73
2024-01-30T02:32:55.327Z,0.73
2024-01-30T02:35:22.418Z,0.73
2024-01-30T02:37:49.623Z,0.69
2024-01-30T02:40:16.595Z,0.70
2024-01-30T02:42:44.016Z,0.68
2024-01-30T02:45:11.262Z,0.65
2024-01-30T02:47:38.170Z,0.70
2024-01-30T02:50:05.958Z,0.66
2024-01-30T02:52:33.259Z,0.65
2024-01-30T02:55:00.266Z,0.64
2024-01-30T02:57:27.233Z,0.66
2024-01-30T02:59:54.117Z,0.61
2024-01-30T03:02:21.451Z,0.62
2024-01-30T03:04:48.365Z,0.56
2024-01-30T03:07:15.891Z,0.56
2024-01-30T03:09:44.187Z,0.56
2024-01-30T03:12:11.663Z,0.60
2024-01-30T03:14:38.769Z,0.56
2024-01-30T03:17:06.282Z,0.52
2024-01-30T03:19:33.242Z,0.52
2024-01-30T03:22:00.288Z,0.51
2024-01-30T03:24:27.235Z,0.52
2024-01-30T03:26:54.385Z,0.50
2024-01-30T03:29:21.785Z,0.48
2024-01-30T03:31:48.683Z,0.46
2024-01-30T03:34:15.735Z,0.48
2024-01-30T03:36:42.792Z,0.43
2024-01-30T03:39:09.717Z,0.42
2024-01-30T03:41:37.399Z,0.37
2024-01-30T03:44:04.386Z,0.42
2024-01-30T03:46:31.299Z,0.42
2024-01-30T03:48:58.290Z,0.38
2024-01-30T03:51:25.215Z,0.33
2024-01-30T03:53:52.205Z,0.29
2024-01-30T03:56:19.126Z,0.26
2024-01-30T03:58:46.014Z,0.30
2024-01-30T04:01:16.335Z,0.31
2024-01-30T04:03:45.190Z,0.33
2024-01-30T04:06:13.087Z,0.26
2024-01-30T04:08:40.070Z,0.32
2024-01-30T04:11:07.437Z,0.31
2024-01-30T04:13:34.773Z,0.28
2024-01-30T04:16:04.867Z,0.29
2024-01-30T04:18:31.891Z,0.21
2024-01-30T04:20:59.264Z,0.23
2024-01-30T04:23:26.158Z,0.19
2024-01-30T04:25:53.082Z,0.20
2024-01-30T04:28:20.103Z,0.21
2024-01-30T04:30:47.128Z,0.13
2024-01-30T04:33:14.267Z,0.14
2024-01-30T04:35:41.229Z,0.11
2024-01-30T04:38:08.365Z,0.15
2024-01-30T04:40:35.508Z,0.08
2024-01-30T04:43:02.678Z,0.08
2024-01-30T04:45:29.645Z,0.08
2024-01-30T04:47:56.545Z,0.08
2024-01-30T04:50:23.937Z,0.06
2024-01-30T04:52:50.871Z,0.07
2024-01-30T04:55:19.191Z,0.03
2024-01-30T04:57:48.172Z,0.06
2024-01-30T05:00:15.222Z,0.11
2024-01-30T05:02:42.171Z,0.08
2024-01-30T05:05:09.580Z,0.11
2024-01-30T05:07:37.076Z,0.12
2024-01-30T05:10:06.883Z,0.11
2024-01-30T05:12:34.576Z,0.12
2024-01-30T05:15:01.620Z,0.07
2024-01-30T05:17:28.528Z,0.10
2024-01-30T05:19:55.482Z,0.11
2024-01-30T05:22:22.499Z,0.11
2024-01-30T05:24:49.566Z,0.14
2024-01-30T05:27:16.516Z,0.17
2024-01-30T05:29:43.716Z,0.21
2024-01-30T05:32:12.185Z,0.17
2024-01-30T05:34:39.184Z,0.16
2024-01-30T05:37:06.254Z,0.22
2024-01-30T05:39:34.180Z,0.24
2024-01-30T05:42:01.221Z,0.24
2024-01-30T05:44:28.180Z,0.20
2024-01-30T05:46:55.083Z,0.23
2024-01-30T05:49:22.949Z,0.29
2024-01-30T05:51:49.968Z,0.25
2024-01-30T05:54:18.042Z,0.22
2024-01-30T05:56:45.245Z,0.27
2024-01-30T05:59:12.234Z,0.32
2024-01-30T06:01:39.239Z,0.34
2024-01-30T06:04:06.476Z,0.36
2024-01-30T06:06:33.508Z,0.35
2024-01-30T06:09:00.803Z,0.43
2024-01-30T06:11:28.086Z,0.40
2024-01-30T06:13:54.960Z,0.40
2024-01-30T06:16:23.733Z,0.36
2024-01-30T06:18:50.731Z,0.40
2024-01-30T06:21:17.872Z,0.42
2024-01-30T06:23:44.864Z,0.45
2024-01-30T06:26:11.804Z,0.49
2024-01-30T06:28:38.728Z,0.48
2024-01-30T06:31:05.726Z,0.41
2024-01-30T06:33:32.734Z,0.44
2024-01-30T06:35:59.722Z,0.45
2024-01-30T06:38:26.616Z,0.41
2024-01-30T06:40:54.720Z,0.44
2024-01-30T06:43:23.026Z,0.43
2024-01-30T06:45:50.007Z,0.53
2024-01-30T06:48:16.925Z,0.53
2024-01-30T06:50:43.822Z,0.51
2024-01-30T06:53:10.777Z,0.49
2024-01-30T06:55:38.014Z,0.52
2024-01-30T06:58:04.956Z,0.55
2024-01-30T07:00:32.163Z,0.55
2024-01-30T07:02:59.085Z,0.57
2024-01-30T07:05:26.392Z,0.56
2024-01-30T07:07:53.390Z,0.56
2024-01-30T07:10:20.487Z,0.61
2024-01-30T07:12:47.435Z,0.66
2024-01-30T07:15:17.651Z,0.71
2024-01-30T07:17:44.630Z,0.69
2024-01-30T07:20:16.196Z,0.75
2024-01-30T07:22:45.218Z,0.75
2024-01-30T07:25:12.466Z,0.79
2024-01-30T07:27:39.418Z,0.85
2024-01-30T07:30:06.783Z,0.84
2024-01-30T07:32:33.821Z,0.91
2024-01-30T07:35:07.768Z,0.95
2024-01-30T07:37:36.698Z,1.04
2024-01-30T07:40:04.735Z,1.08
2024-01-30T07:42:32.035Z,1.10
2024-01-30T07:44:59.008Z,1.21
2024-01-30T07:47:27.578Z,1.24
2024-01-30T07:49:55.572Z,1.32
2024-01-30T07:52:22.807Z,1.37
2024-01-30T07:54:50.394Z,1.34
2024-01-30T07:57:17.843Z,1.46
2024-01-30T07:59:45.571Z,1.50
2024-01-30T08:02:13.437Z,1.45
2024-01-30T08:04:40.509Z,1.56
2024-01-30T08:07:07.641Z,1.60
2024-01-30T08:09:34.587Z,1.68
2024-01-30T08:12:01.507Z,1.69
2024-01-30T08:14:29.149Z,1.81
2024-01-30T08:16:56.583Z,1.91
2024-01-30T08:19:23.616Z,2.15
2024-01-30T08:21:50.645Z,2.39
2024-01-30T08:24:17.563Z,2.46
2024-01-30T08:26:44.573Z,2.52
2024-01-30T08:29:11.758Z,2.76
2024-01-30T08:31:38.870Z,2.95
2024-01-30T08:34:06.006Z,3.28
2024-01-30T08:36:33.038Z,3.53
2024-01-30T08:39:02.799Z,3.53
2024-01-30T08:41:31.970Z,3.49
2024-01-30T08:43:58.952Z,3.39
2024-01-30T08:46:26.000Z,3.47
2024-01-30T08:48:53.154Z,3.50
2024-01-30T08:51:20.114Z,3.53
2024-01-30T08:53:47.604Z,3.35
2024-01-30T08:56:14.804Z,3.30
2024-01-30T08:58:42.029Z,3.24
2024-01-30T09:01:09.043Z,3.19
2024-01-30T09:03:37.749Z,3.44
2024-01-30T09:06:04.704Z,3.33
2024-01-30T09:08:31.586Z,3.51
2024-01-30T09:10:58.589Z,3.45
2024-01-30T09:13:25.825Z,3.26
2024-01-30T09:15:53.529Z,3.27
2024-01-30T09:18:20.541Z,3.20
2024-01-30T09:20:48.653Z,3.30
2024-01-30T09:23:15.586Z,3.21
2024-01-30T09:25:42.558Z,3.18
2024-01-30T09:28:09.989Z,3.13
2024-01-30T09:30:36.914Z,3.24
2024-01-30T09:33:04.118Z,3.17
2024-01-30T09:35:31.427Z,3.10
2024-01-30T09:37:58.991Z,3.30
2024-01-30T09:40:27.068Z,3.62
2024-01-30T09:42:55.079Z,3.77
2024-01-30T09:45:25.614Z,3.68
2024-01-30T09:47:52.876Z,3.71
2024-01-30T09:50:20.209Z,3.83
2024-01-30T09:52:47.877Z,4.04
2024-01-30T09:55:15.010Z,4.28
2024-01-30T09:57:42.753Z,4.24
2024-01-30T10:00:10.156Z,4.47
2024-01-30T10:02:41.334Z,4.31
2024-01-30T10:05:09.554Z,4.25
2024-01-30T10:07:36.772Z,4.23
2024-01-30T10:10:03.810Z,4.40
2024-01-30T10:12:30.933Z,4.26
2024-01-30T10:14:59.081Z,4.24
2024-01-30T10:17:32.754Z,4.17
2024-01-30T10:20:01.964Z,4.14
2024-01-30T10:22:29.778Z,4.48
2024-01-30T10:24:57.137Z,4.64
2024-01-30T10:27:28.163Z,4.23
2024-01-30T10:29:55.135Z,4.35
2024-01-30T10:32:22.385Z,4.58
2024-01-30T10:34:49.378Z,4.44
2024-01-30T10:37:17.648Z,4.45
2024-01-30T10:39:45.410Z,4.27
2024-01-30T10:42:13.359Z,4.10
2024-01-30T10:44:50.479Z,4.27
2024-01-30T10:47:19.821Z,4.43
2024-01-30T10:49:48.039Z,4.40
2024-01-30T10:52:15.651Z,4.10
2024-01-30T10:54:45.283Z,4.11
2024-01-30T10:57:13.964Z,4.29
2024-01-30T10:59:41.631Z,4.06
2024-01-30T11:02:09.472Z,4.19
2024-01-30T11:04:37.327Z,4.43
2024-01-30T11:07:14.794Z,4.27
2024-01-30T11:09:42.813Z,4.06
2024-01-30T11:12:13.392Z,4.10
2024-01-30T11:14:41.421Z,4.09
2024-01-30T11:17:13.127Z,4.07
2024-01-30T11:19:43.041Z,4.01
2024-01-30T11:22:12.848Z,4.00
2024-01-30T11:24:40.967Z,3.89
2024-01-30T11:27:09.406Z,4.07
2024-01-30T11:29:36.758Z,4.02
2024-01-30T11:32:03.792Z,4.02
2024-01-30T11:34:30.845Z,4.07
2024-01-30T11:37:04.272Z,3.92
2024-01-30T11:39:31.190Z,3.94
2024-01-30T11:41:59.655Z,4.08
2024-01-30T11:44:26.950Z,4.04
2024-01-30T11:46:53.898Z,3.92
2024-01-30T11:49:21.066Z,3.77
2024-01-30T11:51:51.732Z,3.70
2024-01-30T11:54:18.924Z,3.60
2024-01-30T11:56:45.934Z,3.67
2024-01-30T11:59:12.909Z,3.71
2024-01-30T12:01:40.047Z,3.83
2024-01-30T12:04:10.833Z,3.71
2024-01-30T12:06:38.832Z,3.70
2024-01-30T12:09:06.048Z,3.71
2024-01-30T12:11:32.990Z,3.70
2024-01-30T12:14:01.112Z,3.81
2024-01-30T12:16:28.203Z,3.67
2024-01-30T12:19:02.578Z,3.66
2024-01-30T12:21:30.200Z,3.81
2024-01-30T12:24:01.271Z,3.83
2024-01-30T12:26:29.446Z,3.77
2024-01-30T12:28:56.805Z,3.72
2024-01-30T12:31:29.032Z,3.65
2024-01-30T12:33:56.758Z,3.72
2024-01-30T12:36:24.178Z,3.66
2024-01-30T12:38:51.200Z,3.79
2024-01-30T12:41:18.421Z,3.77
2024-01-30T12:43:45.625Z,3.63
2024-01-30T12:46:12.650Z,3.66
2024-01-30T12:48:39.862Z,3.55
2024-01-30T12:51:06.887Z,3.51
2024-01-30T12:53:34.001Z,3.47
2024-01-30T12:56:01.412Z,3.43
2024-01-30T12:58:28.427Z,3.47
2024-01-30T13:00:55.899Z,3.49
2024-01-30T13:03:23.314Z,3.44
2024-01-30T13:05:50.310Z,3.53
2024-01-30T13:08:17.179Z,3.59
2024-01-30T13:10:46.471Z,3.58
2024-01-30T13:13:19.745Z,3.65
2024-01-30T13:15:48.167Z,3.81
2024-01-30T13:18:15.153Z,3.77
2024-01-30T13:20:42.185Z,3.79
2024-01-30T13:23:09.185Z,3.62
2024-01-30T13:25:36.224Z,3.63
2024-01-30T13:28:04.019Z,3.65
2024-01-30T13:30:31.028Z,3.85
2024-01-30T13:32:57.962Z,3.64
2024-01-30T13:35:25.032Z,3.77
2024-01-30T13:37:52.042Z,3.76
2024-01-30T13:40:19.181Z,3.71
2024-01-30T13:42:46.152Z,3.53
2024-01-30T13:45:13.087Z,3.45
2024-01-30T13:47:40.706Z,3.34
2024-01-30T13:50:08.893Z,3.25
2024-01-30T13:52:43.802Z,3.33
2024-01-30T13:55:12.570Z,3.28
2024-01-30T13:57:39.977Z,3.22
2024-01-30T14:00:08.029Z,3.09
2024-01-30T14:02:40.129Z,3.05
2024-01-30T14:05:07.322Z,3.14
2024-01-30T14:07:34.960Z,3.06
2024-01-30T14:10:03.426Z,3.03
2024-01-30T14:12:32.048Z,2.96
2024-01-30T14:14:59.164Z,2.83
2024-01-30T14:17:26.116Z,2.72
2024-01-30T14:19:53.143Z,2.70
2024-01-30T14:22:20.103Z,2.67
2024-01-30T14:24:47.369Z,2.67
2024-01-30T14:27:14.554Z,2.66
2024-01-30T14:29:43.511Z,2.73
2024-01-30T14:32:10.408Z,2.61
2024-01-30T14:34:37.466Z,2.54
2024-01-30T14:37:04.607Z,2.51
2024-01-30T14:39:31.724Z,2.46
2024-01-30T14:41:58.729Z,2.43
2024-01-30T14:44:25.604Z,2.42
2024-01-30T14:46:52.850Z,2.40
2024-01-30T14:49:19.818Z,2.23
2024-01-30T14:51:46.900Z,2.23
2024-01-30T14:54:13.883Z,2.17
2024-01-30T14:56:42.298Z,2.13
2024-01-30T14:59:09.195Z,2.10
2024-01-30T15:01:36.249Z,2.00
2024-01-30T15:04:03.682Z,2.00
2024-01-30T15:06:31.003Z,1.93
2024-01-30T15:08:58.025Z,1.95
2024-01-30T15:11:25.883Z,1.89
2024-01-30T15:13:52.750Z,1.79
2024-01-30T15:16:19.795Z,1.67
2024-01-30T15:18:46.802Z,1.54
2024-01-30T15:21:13.809Z,1.43
2024-01-30T15:23:40.740Z,1.36
2024-01-30T15:26:07.673Z,1.35
2024-01-30T15:28:36.551Z,1.17
2024-01-30T15:31:03.722Z,1.12
2024-01-30T15:33:30.761Z,1.02
2024-01-30T15:35:58.205Z,0.97
2024-01-30T15:38:25.174Z,0.96
2024-01-30T15:40:52.865Z,0.91
2024-01-30T15:43:20.714Z,0.87
2024-01-30T15:45:47.731Z,0.82
2024-01-30T15:48:15.326Z,0.75
2024-01-30T15:50:42.421Z,0.72
2024-01-30T15:53:09.513Z,0.64
2024-01-30T15:55:36.525Z,0.61
2024-01-30T15:58:04.779Z,0.57
2024-01-30T16:00:31.884Z,0.57
2024-01-30T16:02:59.358Z,0.52
2024-01-30T16:05:26.436Z,0.53
2024-01-30T16:07:53.394Z,0.53
2024-01-30T16:10:20.608Z,0.52
2024-01-30T16:12:47.624Z,0.54
2024-01-30T16:15:15.292Z,0.41
2024-01-30T16:17:43.275Z,0.35
2024-01-30T16:20:10.416Z,0.32
2024-01-30T16:22:37.521Z,0.34
2024-01-30T16:25:05.416Z,0.36
2024-01-30T16:27:32.421Z,0.34
2024-01-30T16:29:59.459Z,0.34
2024-01-30T16:32:26.597Z,0.30
2024-01-30T16:34:53.896Z,0.31
2024-01-30T16:37:20.854Z,0.34
2024-01-30T16:39:48.589Z,0.37
2024-01-30T16:42:15.931Z,0.36
2024-01-30T16:44:44.567Z,0.32
2024-01-30T16:47:11.863Z,0.31
2024-01-30T16:49:39.174Z,0.26
2024-01-30T16:52:06.329Z,0.24
2024-01-30T16:54:33.319Z,0.22
2024-01-30T16:57:00.211Z,0.18
2024-01-30T16:59:28.077Z,0.20
2024-01-30T17:01:55.016Z,0.13
2024-01-30T17:04:23.219Z,0.11
2024-01-30T17:06:50.559Z,0.10
2024-01-30T17:09:17.676Z,0.13
2024-01-30T17:11:44.750Z,0.13
2024-01-30T17:14:15.637Z,0.08
2024-01-30T17:16:43.365Z,0.12
2024-01-30T17:19:10.457Z,0.01
2024-01-30T17:21:38.155Z,-0.01
2024-01-30T17:24:05.376Z,-0.01
2024-01-30T17:26:32.562Z,0.03
2024-01-30T17:28:59.680Z,-0.04
2024-01-30T17:31:26.597Z,-0.09
2024-01-30T17:33:53.768Z,-0.05
2024-01-30T17:36:22.164Z,-0.04
2024-01-30T17:38:49.044Z,-0.04
2024-01-30T17:41:15.970Z,-0.08
2024-01-30T17:43:42.877Z,-0.07
2024-01-30T17:46:10.099Z,-0.04
2024-01-30T17:48:37.617Z,-0.06
2024-01-30T17:51:04.880Z,-0.06
2024-01-30T17:53:31.901Z,-0.02
2024-01-30T17:56:02.557Z,-0.06
2024-01-30T17:58:29.636Z,-0.07
2024-01-30T18:00:58.059Z,-0.08
2024-01-30T18:03:25.808Z,-0.13
2024-01-30T18:05:52.872Z,-0.11
2024-01-30T18:08:19.825Z,-0.10
2024-01-30T18:10:46.738Z,-0.11
2024-01-30T18:13:14.731Z,-0.15
2024-01-30T18:15:41.710Z,-0.14
2024-01-30T18:18:08.805Z,-0.16
2024-01-30T18:20:35.892Z,-0.16
2024-01-30T18:23:02.848Z,-0.18
2024-01-30T18:25:29.976Z,-0.24
2024-01-30T18:27:56.959Z,-0.24
2024-01-30T18:30:24.009Z,-0.26
2024-01-30T18:32:50.915Z,-0.28
2024-01-30T18:35:17.833Z,-0.29
2024-01-30T18:37:44.856Z,-0.30
2024-01-30T18:40:12.217Z,-0.28
2024-01-30T18:42:39.121Z,-0.31
2024-01-30T18:45:06.256Z,-0.27
2024-01-30T18:47:33.194Z,-0.28
2024-01-30T18:50:00.402Z,-0.22
2024-01-30T18:52:27.643Z,-0.28
2024-01-30T18:54:54.695Z,-0.31
2024-01-30T18:57:21.979Z,-0.32
2024-01-30T18:59:48.959Z,-0.31
2024-01-30T19:02:16.972Z,-0.29
2024-01-30T19:04:44.310Z,-0.30
2024-01-30T19:07:11.856Z,-0.29
2024-01-30T19:09:39.338Z,-0.29
2024-01-30T19:12:07.158Z,-0.27
2024-01-30T19:14:35.357Z,-0.26
2024-01-30T19:17:02.282Z,-0.26
2024-01-30T19:19:29.278Z,-0.25
2024-01-30T19:21:56.311Z,-0.26
2024-01-30T19:24:23.297Z,-0.29
2024-01-30T19:26:53.107Z,-0.31
2024-01-30T19:29:23.090Z,-0.28
2024-01-30T19:31:50.117Z,-0.31
2024-01-30T19:34:17.517Z,-0.32
2024-01-30T19:36:44.593Z,-0.33
2024-01-30T19:39:14.696Z,-0.31
2024-01-30T19:41:44.783Z,-0.30
2024-01-30T19:44:12.591Z,-0.27
2024-01-30T19:46:39.534Z,-0.28
2024-01-30T19:49:06.704Z,-0.31
2024-01-30T19:51:34.437Z,-0.28
2024-01-30T19:54:01.374Z,-0.31
2024-01-30T19:56:28.312Z,-0.33
2024-01-30T19:58:55.693Z,-0.14
2024-01-30T20:01:23.047Z,-0.28
2024-01-30T20:03:50.127Z,-0.32
2024-01-30T20:06:17.053Z,-0.33
2024-01-30T20:08:43.989Z,-0.31
2024-01-30T20:11:17.487Z,-0.27
2024-01-30T20:13:44.494Z,-0.32
2024-01-30T20:16:11.516Z,-0.29
2024-01-30T20:18:38.503Z,-0.25
2024-01-30T20:21:05.471Z,-0.25
2024-01-30T20:23:33.143Z,-0.29
2024-01-30T20:26:00.302Z,-0.27
2024-01-30T20:28:27.739Z,-0.29
2024-01-30T20:30:54.900Z,-0.25
2024-01-30T20:33:21.962Z,-0.27
2024-01-30T20:35:48.926Z,-0.30
2024-01-30T20:38:16.758Z,-0.14
2024-01-30T20:40:43.782Z,-0.24
2024-01-30T20:43:11.317Z,-0.30
2024-01-30T20:45:38.238Z,-0.09
2024-01-30T20:48:05.489Z,-0.28
2024-01-30T20:50:32.689Z,-0.34
2024-01-30T20:52:59.765Z,-0.30
2024-01-30T20:55:26.757Z,-0.28
2024-01-30T20:57:53.734Z,-0.32
2024-01-30T21:00:20.771Z,-0.38
2024-01-30T21:02:47.675Z,-0.38
2024-01-30T21:05:14.807Z,-0.39
2024-01-30T21:07:42.227Z,-0.38
2024-01-30T21:12:36.360Z,-0.40
2024-01-30T21:15:04.746Z,-0.38
2024-01-30T21:17:31.739Z,-0.37
2024-01-30T21:19:59.104Z,-0.37
2024-01-30T21:22:26.239Z,-0.40
2024-01-30T21:24:53.252Z,-0.42
2024-01-30T21:27:20.195Z,-0.42
2024-01-30T21:29:47.057Z,-0.45
2024-01-30T21:32:14.128Z,-0.45
2024-01-30T21:34:41.289Z,-0.45
2024-01-30T21:37:08.357Z,-0.46
2024-01-30T21:39:35.323Z,-0.46
2024-01-30T21:42:03.426Z,-0.44
2024-01-30T21:44:31.128Z,-0.40
2024-01-30T21:46:58.968Z,-0.46
2024-01-30T21:49:26.032Z,-0.46
2024-01-30T21:51:54.870Z,-0.39
2024-01-30T21:54:21.846Z,-0.50
2024-01-30T21:56:48.774Z,-0.49
2024-01-30T21:59:16.826Z,-0.49
2024-01-30T22:01:43.846Z,-0.58
2024-01-30T22:04:10.948Z,-0.50
2024-01-30T22:06:39.927Z,-0.57
2024-01-30T22:09:07.941Z,-0.60
2024-01-30T22:11:35.080Z,-0.55
2024-01-30T22:14:02.354Z,-0.52
2024-01-30T22:16:29.382Z,-0.52
2024-01-30T22:18:56.380Z,-0.52
2024-01-30T22:21:25.757Z,-0.59
2024-01-30T22:23:52.744Z,-0.60
2024-01-30T22:26:19.660Z,-0.60
2024-01-30T22:28:46.671Z,-0.57
2024-01-30T22:31:13.749Z,-0.58
2024-01-30T22:33:40.731Z,-0.62
2024-01-30T22:36:08.266Z,-0.60
2024-01-30T22:38:35.474Z,-0.58
2024-01-30T22:41:02.567Z,-0.53
2024-01-30T22:43:33.320Z,-0.53
2024-01-30T22:46:00.600Z,-0.58
2024-01-30T22:48:27.643Z,-0.56
2024-01-30T22:50:54.560Z,-0.40
2024-01-30T22:53:21.436Z,-0.52
2024-01-30T22:55:48.348Z,-0.53
2024-01-30T22:58:16.384Z,-0.48
2024-01-30T23:00:43.357Z,-0.48
2024-01-30T23:03:11.936Z,-0.48
2024-01-30T23:05:40.356Z,-0.53
2024-01-30T23:08:07.854Z,-0.53
2024-01-30T23:10:35.184Z,-0.53
2024-01-30T23:13:03.358Z,-0.53
2024-01-30T23:15:30.452Z,-0.50
2024-01-30T23:17:57.469Z,-0.53
2024-01-30T23:20:24.818Z,-0.51
2024-01-30T23:22:51.774Z,-0.50
2024-01-30T23:25:18.859Z,-0.46
2024-01-30T23:27:45.856Z,-0.47
2024-01-30T23:30:13.420Z,-0.41
2024-01-30T23:32:43.339Z,-0.44
2024-01-30T23:35:10.862Z,-0.44
2024-01-30T23:37:39.987Z,-0.43
2024-01-30T23:40:11.213Z,-0.35
2024-01-30T23:42:38.263Z,-0.39
2024-01-30T23:45:05.751Z,-0.37
2024-01-30T23:47:32.898Z,-0.27
2024-01-30T23:49:59.865Z,-0.26
2024-01-30T23:52:28.075Z,-0.27
2024-01-30T23:54:55.615Z,-0.26
2024-01-30T23:57:23.598Z,-0.30
2024-01-30T23:59:50.728Z,-0.22
